createdAt,value
2022-12-11T00:02:05.825Z,66.28
2022-12-11T00:04:32.835Z,66.25
2022-12-11T00:06:59.517Z,66.84
2022-12-11T00:09:26.178Z,67.10
2022-12-11T00:11:53.009Z,66.92
2022-12-11T00:14:19.746Z,66.49
2022-12-11T00:16:48.481Z,66.69
2022-12-11T00:19:15.817Z,66.95
2022-12-11T00:21:42.691Z,66.96
2022-12-11T00:24:09.473Z,66.55
2022-12-11T00:26:36.224Z,66.68
2022-12-11T00:29:03.073Z,66.79
2022-12-11T00:31:29.919Z,67.09
2022-12-11T00:33:56.597Z,66.71
2022-12-11T00:36:25.612Z,66.68
2022-12-11T00:38:53.159Z,66.99
2022-12-11T00:41:23.112Z,66.98
2022-12-11T00:43:50.203Z,67.13
2022-12-11T00:46:17.049Z,67.21
2022-12-11T00:48:43.808Z,67.33
2022-12-11T00:51:10.725Z,67.24
2022-12-11T00:53:38.701Z,67.43
2022-12-11T00:56:17.534Z,67.24
2022-12-11T00:58:45.292Z,67.51
2022-12-11T01:01:18.413Z,67.28
2022-12-11T01:03:45.772Z,67.35
2022-12-11T01:06:17.226Z,67.24
2022-12-11T01:08:45.129Z,67.30
2022-12-11T01:11:13.750Z,67.77
2022-12-11T01:13:41.602Z,68.36
2022-12-11T01:16:14.189Z,68.32
2022-12-11T01:18:41.403Z,68.52
2022-12-11T01:21:09.740Z,68.32
2022-12-11T01:23:37.452Z,67.75
2022-12-11T01:26:06.175Z,68.31
2022-12-11T01:28:32.945Z,68.66
2022-12-11T01:30:59.625Z,68.69
2022-12-11T01:33:26.717Z,68.55
2022-12-11T01:35:54.368Z,68.40
2022-12-11T01:38:21.103Z,68.05
2022-12-11T01:40:49.743Z,67.96
2022-12-11T01:43:16.639Z,67.98
2022-12-11T01:45:46.142Z,68.19
2022-12-11T01:48:21.358Z,68.14
2022-12-11T01:50:57.989Z,68.08
2022-12-11T01:53:31.725Z,67.82
2022-12-11T01:55:59.283Z,67.80
2022-12-11T01:58:41.935Z,68.02
2022-12-11T02:01:14.704Z,68.25
2022-12-11T02:03:41.349Z,68.29
2022-12-11T02:06:33.735Z,68.01
2022-12-11T02:09:01.421Z,68.01
2022-12-11T02:11:40.795Z,67.50
2022-12-11T02:14:28.921Z,67.49
2022-12-11T02:17:22.638Z,67.42
2022-12-11T02:20:03.819Z,67.99
2022-12-11T02:22:48.862Z,67.79
2022-12-11T02:25:31.313Z,67.48
2022-12-11T02:28:30.423Z,67.80
2022-12-11T02:31:16.741Z,67.43
2022-12-11T02:33:58.264Z,66.87
2022-12-11T02:36:28.349Z,66.87
2022-12-11T02:38:58.827Z,66.86
2022-12-11T02:41:28.888Z,66.77
2022-12-11T02:43:57.718Z,67.28
2022-12-11T02:46:25.654Z,67.29
2022-12-11T02:48:54.207Z,66.85
2022-12-11T02:51:25.949Z,66.72
2022-12-11T02:53:56.915Z,66.76
2022-12-11T02:56:38.165Z,66.50
2022-12-11T02:59:11.052Z,66.85
2022-12-11T03:01:38.182Z,66.70
2022-12-11T03:04:05.433Z,66.67
2022-12-11T03:06:37.290Z,66.37
2022-12-11T03:09:05.298Z,66.68
2022-12-11T03:11:32.018Z,66.56
2022-12-11T03:13:59.933Z,66.52
2022-12-11T03:16:35.410Z,66.53
2022-12-11T03:19:12.610Z,66.55
2022-12-11T03:22:03.558Z,66.59
2022-12-11T03:24:43.566Z,66.32
2022-12-11T03:27:21.827Z,66.23
2022-12-11T03:29:57.779Z,66.22
2022-12-11T03:32:31.282Z,65.95
2022-12-11T03:35:06.058Z,65.92
2022-12-11T03:37:36.568Z,66.16
2022-12-11T03:40:10.505Z,66.06
2022-12-11T03:42:40.266Z,66.08
2022-12-11T03:45:08.667Z,66.55
2022-12-11T03:47:37.771Z,66.05
2022-12-11T03:50:07.331Z,66.11
2022-12-11T03:52:39.674Z,66.68
2022-12-11T03:55:13.888Z,66.34
2022-12-11T03:57:40.650Z,65.98
2022-12-11T04:00:10.333Z,65.78
2022-12-11T04:02:40.968Z,65.92
2022-12-11T04:05:09.161Z,66.51
2022-12-11T04:07:36.339Z,66.32
2022-12-11T04:10:04.811Z,66.11
2022-12-11T04:12:31.428Z,66.29
2022-12-11T04:15:04.006Z,66.41
2022-12-11T04:17:53.562Z,66.54
2022-12-11T04:20:40.086Z,66.36
2022-12-11T04:23:31.447Z,66.29
2022-12-11T04:26:16.748Z,66.15
2022-12-11T04:28:44.852Z,66.17
2022-12-11T04:31:17.294Z,65.84
2022-12-11T04:33:44.288Z,66.00
2022-12-11T04:36:11.658Z,65.81
2022-12-11T04:38:38.382Z,66.15
2022-12-11T04:41:16.030Z,66.25
2022-12-11T04:43:45.253Z,66.13
2022-12-11T04:46:16.236Z,66.05
2022-12-11T04:48:43.086Z,65.63
2022-12-11T04:51:10.159Z,65.79
2022-12-11T04:53:37.582Z,66.01
2022-12-11T04:56:09.042Z,66.75
2022-12-11T04:58:36.870Z,66.82
2022-12-11T05:01:13.963Z,65.99
2022-12-11T05:03:41.562Z,66.48
2022-12-11T05:06:10.110Z,66.73
2022-12-11T05:08:40.149Z,66.19
2022-12-11T05:11:09.820Z,65.89
2022-12-11T05:13:36.569Z,66.08
2022-12-11T05:16:05.690Z,66.11
2022-12-11T05:18:32.535Z,66.08
2022-12-11T05:21:01.332Z,65.73
2022-12-11T05:23:29.052Z,66.12
2022-12-11T05:25:58.004Z,66.06
2022-12-11T05:28:26.481Z,66.13
2022-12-11T05:31:00.866Z,66.08
2022-12-11T05:33:28.675Z,65.77
2022-12-11T05:35:55.460Z,66.57
2022-12-11T05:38:22.621Z,66.33
2022-12-11T05:41:03.944Z,66.57
2022-12-11T05:43:33.400Z,65.80
2022-12-11T05:46:13.333Z,66.24
2022-12-11T05:48:41.509Z,66.04
2022-12-11T05:51:09.113Z,66.08
2022-12-11T05:53:37.192Z,66.01
2022-12-11T05:56:06.278Z,65.36
2022-12-11T05:58:34.355Z,65.44
2022-12-11T06:01:02.311Z,65.15
2022-12-11T06:03:28.960Z,65.27
2022-12-11T06:05:55.804Z,65.47
2022-12-11T06:08:22.697Z,65.12
2022-12-11T06:10:50.666Z,66.05
2022-12-11T06:13:17.618Z,65.61
2022-12-11T06:15:44.241Z,65.14
2022-12-11T06:18:11.023Z,65.52
2022-12-11T06:20:38.027Z,65.68
2022-12-11T06:23:04.893Z,65.57
2022-12-11T06:25:31.571Z,65.45
2022-12-11T06:27:58.340Z,65.07
2022-12-11T06:30:38.820Z,65.43
2022-12-11T06:33:06.713Z,65.53
2022-12-11T06:35:38.614Z,65.66
2022-12-11T06:38:08.297Z,65.04
2022-12-11T06:40:34.961Z,65.59
2022-12-11T06:43:01.692Z,65.12
2022-12-11T06:45:28.507Z,65.06
2022-12-11T06:47:55.629Z,64.92
2022-12-11T06:50:22.233Z,65.04
2022-12-11T06:52:48.957Z,65.48
2022-12-11T06:55:15.612Z,65.77
2022-12-11T06:57:42.354Z,65.58
2022-12-11T07:00:09.777Z,65.18
2022-12-11T07:02:36.560Z,64.87
2022-12-11T07:05:03.584Z,64.96
2022-12-11T07:07:30.343Z,65.65
2022-12-11T07:09:57.056Z,65.75
2022-12-11T07:12:23.854Z,65.05
2022-12-11T07:14:50.486Z,65.23
2022-12-11T07:17:17.091Z,65.43
2022-12-11T07:19:43.827Z,65.07
2022-12-11T07:22:10.445Z,64.56
2022-12-11T07:24:37.118Z,64.60
2022-12-11T07:27:04.474Z,64.81
2022-12-11T07:29:31.139Z,64.46
2022-12-11T07:31:57.919Z,64.69
2022-12-11T07:34:24.881Z,64.67
2022-12-11T07:36:51.637Z,65.09
2022-12-11T07:39:20.482Z,65.17
2022-12-11T07:41:47.290Z,64.77
2022-12-11T07:44:15.883Z,64.82
2022-12-11T07:46:42.562Z,64.39
2022-12-11T07:49:09.240Z,64.42
2022-12-11T07:51:37.512Z,64.76
2022-12-11T07:54:16.322Z,64.32
2022-12-11T07:56:53.257Z,64.85
2022-12-11T07:59:21.128Z,64.53
2022-12-11T08:01:47.888Z,64.19
2022-12-11T08:04:15.741Z,64.17
2022-12-11T08:06:43.112Z,64.21
2022-12-11T08:09:17.459Z,64.31
2022-12-11T08:11:49.365Z,64.10
2022-12-11T08:14:16.032Z,63.95
2022-12-11T08:16:44.190Z,64.37
2022-12-11T08:19:12.018Z,64.56
2022-12-11T08:21:40.033Z,64.17
2022-12-11T08:24:06.884Z,64.46
2022-12-11T08:26:36.425Z,64.16
2022-12-11T08:29:05.422Z,64.37
2022-12-11T08:31:33.152Z,64.25
2022-12-11T08:34:00.234Z,63.71
2022-12-11T08:36:27.143Z,63.90
2022-12-11T08:38:55.576Z,64.27
2022-12-11T08:41:30.183Z,63.64
2022-12-11T08:43:58.612Z,64.03
2022-12-11T08:46:27.889Z,63.64
2022-12-11T08:48:55.606Z,64.03
2022-12-11T08:51:25.969Z,63.97
2022-12-11T08:53:55.435Z,63.64
2022-12-11T08:56:23.619Z,63.76
2022-12-11T08:58:53.007Z,63.12
2022-12-11T09:01:22.228Z,63.61
2022-12-11T09:03:50.388Z,64.48
2022-12-11T09:06:20.565Z,64.03
2022-12-11T09:08:52.547Z,63.39
2022-12-11T09:11:32.199Z,63.30
2022-12-11T09:14:07.103Z,63.61
2022-12-11T09:16:37.662Z,63.52
2022-12-11T09:19:04.582Z,62.76
2022-12-11T09:21:31.300Z,63.91
2022-12-11T09:24:00.588Z,63.32
2022-12-11T09:26:29.204Z,63.55
2022-12-11T09:28:56.002Z,63.38
2022-12-11T09:31:27.985Z,62.75
2022-12-11T09:33:57.217Z,62.72
2022-12-11T09:36:24.233Z,63.16
2022-12-11T09:38:51.631Z,63.14
2022-12-11T09:41:21.458Z,63.65
2022-12-11T09:43:53.710Z,64.24
2022-12-11T09:46:24.453Z,63.40
2022-12-11T09:48:53.491Z,63.78
2022-12-11T09:51:35.045Z,63.78
2022-12-11T09:54:04.277Z,63.28
2022-12-11T09:56:45.130Z,62.93
2022-12-11T09:59:26.887Z,62.76
2022-12-11T10:02:15.159Z,62.14
2022-12-11T10:05:14.566Z,62.10
2022-12-11T10:07:45.409Z,62.52
2022-12-11T10:10:50.542Z,62.16
2022-12-11T10:13:41.341Z,62.24
2022-12-11T10:16:33.783Z,62.60
2022-12-11T10:19:01.107Z,62.66
2022-12-11T10:21:36.456Z,62.21
2022-12-11T10:24:05.805Z,61.81
2022-12-11T10:26:32.441Z,61.84
2022-12-11T10:29:02.557Z,61.94
2022-12-11T10:31:35.265Z,61.40
2022-12-11T10:34:13.307Z,61.67
2022-12-11T10:36:42.872Z,61.21
2022-12-11T10:39:14.683Z,61.12
2022-12-11T10:41:43.969Z,61.14
2022-12-11T10:44:26.733Z,61.17
2022-12-11T10:47:10.678Z,60.99
2022-12-11T10:49:39.066Z,60.93
2022-12-11T10:52:19.932Z,61.13
2022-12-11T10:54:53.999Z,60.75
2022-12-11T10:57:28.223Z,60.17
2022-12-11T10:59:55.646Z,60.38
2022-12-11T11:02:32.237Z,59.92
2022-12-11T11:05:01.039Z,60.83
2022-12-11T11:07:30.407Z,59.33
2022-12-11T11:10:15.909Z,59.00
2022-12-11T11:12:46.052Z,58.94
2022-12-11T11:15:35.840Z,58.34
2022-12-11T11:18:11.797Z,58.25
2022-12-11T11:20:47.300Z,58.38
2022-12-11T11:23:16.125Z,57.73
2022-12-11T11:25:56.122Z,57.61
2022-12-11T11:28:37.366Z,57.81
2022-12-11T11:31:08.500Z,57.67
2022-12-11T11:33:37.868Z,56.45
2022-12-11T11:36:07.529Z,57.31
2022-12-11T11:38:37.171Z,57.15
2022-12-11T11:41:15.712Z,56.90
2022-12-11T11:43:44.210Z,56.97
2022-12-11T11:46:17.781Z,56.67
2022-12-11T11:48:53.649Z,56.78
2022-12-11T11:51:29.577Z,56.75
2022-12-11T11:54:00.032Z,56.82
2022-12-11T11:56:31.438Z,57.37
2022-12-11T11:59:12.328Z,56.07
2022-12-11T12:01:41.922Z,56.28
2022-12-11T12:04:09.252Z,56.29
2022-12-11T12:06:50.933Z,56.43
2022-12-11T12:09:32.531Z,55.61
2022-12-11T12:12:07.093Z,56.03
2022-12-11T12:14:58.818Z,56.45
2022-12-11T12:17:55.147Z,55.67
2022-12-11T12:20:55.511Z,56.08
2022-12-11T12:23:45.101Z,55.32
2022-12-11T12:26:31.195Z,55.48
2022-12-11T12:29:22.273Z,55.94
2022-12-11T12:32:13.571Z,56.14
2022-12-11T12:34:49.020Z,56.17
2022-12-11T12:37:47.905Z,56.94
2022-12-11T12:40:43.516Z,57.09
2022-12-11T12:43:44.878Z,57.67
2022-12-11T12:46:19.724Z,57.79
2022-12-11T12:48:46.441Z,58.54
2022-12-11T12:51:17.528Z,58.06
2022-12-11T12:53:51.775Z,57.77
2022-12-11T12:56:19.885Z,57.97
2022-12-11T12:58:46.684Z,58.16
2022-12-11T13:01:13.339Z,58.05
2022-12-11T13:04:47.462Z,57.75
2022-12-11T13:07:18.738Z,57.65
2022-12-11T13:09:58.565Z,58.49
2022-12-11T13:12:42.489Z,58.27
2022-12-11T13:15:42.613Z,58.44
2022-12-11T13:18:33.316Z,58.48
2022-12-11T13:21:00.966Z,58.22
2022-12-11T13:23:31.010Z,58.89
2022-12-11T13:26:00.449Z,58.34
2022-12-11T13:28:28.892Z,58.21
2022-12-11T13:31:13.660Z,59.05
2022-12-11T13:33:45.888Z,59.47
2022-12-11T13:36:17.723Z,59.88
2022-12-11T13:38:51.110Z,59.24
2022-12-11T13:41:19.942Z,59.63
2022-12-11T13:43:49.970Z,58.72
2022-12-11T13:46:28.544Z,59.55
2022-12-11T13:49:02.299Z,59.40
2022-12-11T13:51:31.891Z,59.67
2022-12-11T13:54:17.897Z,59.67
2022-12-11T13:56:58.396Z,59.38
2022-12-11T13:59:28.790Z,59.88
2022-12-11T14:02:03.978Z,59.30
2022-12-11T14:04:33.528Z,58.92
2022-12-11T14:07:01.809Z,58.88
2022-12-11T14:09:28.866Z,59.82
2022-12-11T14:11:57.343Z,59.77
2022-12-11T14:14:33.637Z,60.15
2022-12-11T14:17:00.784Z,60.97
2022-12-11T14:19:28.257Z,60.93
2022-12-11T14:22:03.916Z,60.78
2022-12-11T14:24:31.496Z,60.72
2022-12-11T14:26:58.572Z,61.02
2022-12-11T14:29:26.674Z,60.89
2022-12-11T14:31:54.073Z,60.35
2022-12-11T14:34:26.237Z,61.13
2022-12-11T14:36:54.262Z,61.46
2022-12-11T14:39:43.336Z,61.23
2022-12-11T14:42:19.998Z,60.98
2022-12-11T14:44:55.483Z,60.82
2022-12-11T14:47:28.047Z,61.26
2022-12-11T14:50:08.303Z,61.18
2022-12-11T14:52:57.540Z,61.19
2022-12-11T14:55:28.662Z,61.83
2022-12-11T14:57:59.046Z,62.04
2022-12-11T15:00:27.510Z,61.86
2022-12-11T15:03:03.400Z,62.29
2022-12-11T15:05:35.767Z,62.29
2022-12-11T15:08:12.571Z,62.41
2022-12-11T15:10:43.428Z,62.38
2022-12-11T15:13:10.384Z,61.45
2022-12-11T15:15:47.514Z,61.92
2022-12-11T15:18:28.399Z,62.19
2022-12-11T15:20:58.681Z,63.00
2022-12-11T15:23:26.419Z,62.12
2022-12-11T15:25:56.725Z,63.08
2022-12-11T15:28:35.619Z,62.63
2022-12-11T15:31:24.103Z,62.84
2022-12-11T15:33:51.384Z,62.65
2022-12-11T15:36:30.196Z,63.22
2022-12-11T15:38:57.713Z,63.53
2022-12-11T15:41:25.106Z,63.56
2022-12-11T15:43:59.132Z,63.49
2022-12-11T15:46:26.477Z,63.72
2022-12-11T15:48:53.876Z,63.94
2022-12-11T15:51:20.525Z,63.90
2022-12-11T15:53:47.189Z,64.65
2022-12-11T15:56:15.300Z,64.67
2022-12-11T15:58:44.566Z,64.25
2022-12-11T16:01:11.586Z,64.89
2022-12-11T16:03:38.293Z,65.20
2022-12-11T16:06:05.244Z,65.52
2022-12-11T16:08:32.226Z,64.55
2022-12-11T16:10:59.048Z,64.75
2022-12-11T16:13:25.707Z,64.48
2022-12-11T16:15:54.233Z,64.70
2022-12-11T16:18:23.411Z,64.88
2022-12-11T16:20:51.394Z,65.42
2022-12-11T16:23:18.523Z,64.69
2022-12-11T16:25:46.475Z,64.92
2022-12-11T16:28:16.021Z,64.69
2022-12-11T16:30:44.050Z,65.35
2022-12-11T16:33:13.290Z,64.80
2022-12-11T16:35:41.863Z,64.65
2022-12-11T16:38:10.061Z,64.98
2022-12-11T16:40:37.526Z,64.86
2022-12-11T16:43:05.289Z,65.41
2022-12-11T16:45:32.461Z,64.93
2022-12-11T16:48:03.723Z,64.86
2022-12-11T16:50:31.119Z,65.17
2022-12-11T16:52:57.865Z,65.01
2022-12-11T16:55:24.730Z,65.07
2022-12-11T16:57:51.369Z,64.83
2022-12-11T17:00:18.237Z,64.52
2022-12-11T17:02:44.930Z,64.27
2022-12-11T17:05:11.900Z,64.49
2022-12-11T17:07:40.339Z,64.70
2022-12-11T17:10:07.772Z,64.46
2022-12-11T17:12:34.652Z,65.10
2022-12-11T17:15:01.403Z,65.45
2022-12-11T17:17:28.068Z,64.61
2022-12-11T17:19:55.866Z,64.71
2022-12-11T17:22:22.745Z,64.92
2022-12-11T17:24:49.647Z,65.07
2022-12-11T17:27:16.852Z,64.72
2022-12-11T17:29:43.787Z,64.89
2022-12-11T17:32:10.483Z,65.44
2022-12-11T17:34:38.625Z,65.49
2022-12-11T17:37:05.881Z,64.45
2022-12-11T17:39:33.442Z,65.40
2022-12-11T17:42:00.495Z,65.11
2022-12-11T17:44:30.284Z,65.34
2022-12-11T17:46:58.544Z,64.46
2022-12-11T17:49:25.922Z,64.34
2022-12-11T17:51:53.227Z,64.97
2022-12-11T17:54:20.145Z,64.70
2022-12-11T17:56:46.916Z,64.50
2022-12-11T17:59:13.643Z,65.53
2022-12-11T18:01:40.506Z,64.69
2022-12-11T18:04:07.330Z,64.63
2022-12-11T18:06:34.953Z,65.18
2022-12-11T18:09:01.965Z,65.32
2022-12-11T18:11:28.840Z,65.30
2022-12-11T18:13:55.691Z,65.03
2022-12-11T18:16:29.354Z,65.66
2022-12-11T18:18:56.479Z,65.76
2022-12-11T18:21:26.916Z,65.43
2022-12-11T18:23:53.951Z,65.91
2022-12-11T18:26:21.094Z,65.73
2022-12-11T18:28:49.718Z,65.82
2022-12-11T18:31:17.345Z,65.54
2022-12-11T18:33:45.001Z,65.66
2022-12-11T18:36:13.667Z,65.34
2022-12-11T18:38:40.987Z,65.59
2022-12-11T18:41:10.397Z,65.71
2022-12-11T18:43:37.406Z,65.32
2022-12-11T18:46:12.566Z,65.03
2022-12-11T18:48:39.987Z,65.54
2022-12-11T18:51:09.585Z,65.47
2022-12-11T18:53:39.117Z,65.42
2022-12-11T18:56:08.218Z,65.00
2022-12-11T18:58:35.008Z,65.00
2022-12-11T19:01:16.004Z,64.43
2022-12-11T19:03:44.057Z,64.29
2022-12-11T19:06:13.922Z,64.05
2022-12-11T19:08:41.075Z,64.45
2022-12-11T19:11:08.272Z,63.70
2022-12-11T19:13:35.659Z,63.93
2022-12-11T19:16:02.456Z,63.27
2022-12-11T19:18:29.291Z,62.38
2022-12-11T19:21:06.492Z,63.02
2022-12-11T19:23:35.724Z,62.31
2022-12-11T19:26:02.944Z,62.95
2022-12-11T19:28:29.792Z,62.32
2022-12-11T19:30:56.505Z,61.66
2022-12-11T19:33:23.256Z,62.00
2022-12-11T19:35:49.884Z,62.35
2022-12-11T19:38:16.794Z,61.85
2022-12-11T19:40:44.669Z,61.50
2022-12-11T19:43:11.599Z,62.05
2022-12-11T19:45:38.427Z,62.08
2022-12-11T19:48:05.865Z,61.97
2022-12-11T19:50:35.710Z,62.32
2022-12-11T19:53:03.666Z,62.30
2022-12-11T19:55:30.402Z,62.10
2022-12-11T19:57:57.083Z,62.07
2022-12-11T20:00:24.663Z,62.19
2022-12-11T20:02:51.679Z,62.71
2022-12-11T20:05:18.507Z,62.57
2022-12-11T20:07:45.295Z,62.11
2022-12-11T20:10:12.375Z,61.84
2022-12-11T20:12:39.557Z,61.31
2022-12-11T20:15:06.915Z,61.76
2022-12-11T20:17:33.669Z,61.91
2022-12-11T20:20:00.573Z,62.13
2022-12-11T20:22:27.342Z,62.50
2022-12-11T20:24:54.029Z,62.16
2022-12-11T20:27:20.798Z,62.31
2022-12-11T20:29:47.465Z,61.57
2022-12-11T20:32:14.314Z,61.41
2022-12-11T20:34:41.199Z,62.07
2022-12-11T20:37:07.986Z,62.29
2022-12-11T20:39:35.599Z,62.60
2022-12-11T20:42:04.803Z,62.60
2022-12-11T20:44:31.991Z,62.68
2022-12-11T20:46:58.646Z,63.55
2022-12-11T20:49:26.321Z,63.66
2022-12-11T20:51:53.517Z,62.72
2022-12-11T20:54:20.826Z,63.02
2022-12-11T20:56:47.710Z,62.79
2022-12-11T20:59:14.397Z,62.69
2022-12-11T21:01:41.146Z,62.03
2022-12-11T21:04:07.906Z,62.15
2022-12-11T21:06:37.475Z,62.27
2022-12-11T21:09:11.720Z,62.41
2022-12-11T21:11:38.801Z,61.91
2022-12-11T21:14:06.472Z,62.10
2022-12-11T21:16:35.293Z,62.00
2022-12-11T21:19:02.848Z,62.07
2022-12-11T21:21:32.299Z,61.78
2022-12-11T21:23:59.016Z,61.84
2022-12-11T21:26:25.699Z,62.01
2022-12-11T21:28:52.481Z,60.90
2022-12-11T21:31:19.811Z,61.07
2022-12-11T21:33:46.803Z,62.26
2022-12-11T21:36:15.267Z,62.84
2022-12-11T21:38:43.901Z,63.23
2022-12-11T21:41:16.622Z,62.65
2022-12-11T21:44:14.543Z,62.97
2022-12-11T21:46:31.883Z,62.58
2022-12-11T21:48:59.589Z,63.00
2022-12-11T21:51:35.690Z,62.26
2022-12-11T21:54:06.142Z,63.27
2022-12-11T21:56:33.308Z,63.33
2022-12-11T21:59:01.451Z,63.44
2022-12-11T22:01:33.294Z,63.97
2022-12-11T22:04:00.004Z,64.23
2022-12-11T22:06:28.337Z,64.96
2022-12-11T22:08:55.088Z,64.94
2022-12-11T22:11:26.088Z,64.56
2022-12-11T22:13:53.290Z,64.12
2022-12-11T22:16:20.383Z,63.96
2022-12-11T22:18:47.384Z,64.40
2022-12-11T22:21:14.792Z,64.48
2022-12-11T22:23:43.050Z,64.86
2022-12-11T22:26:15.260Z,64.56
2022-12-11T22:28:42.108Z,64.48
2022-12-11T22:31:11.928Z,64.35
2022-12-11T22:33:39.277Z,63.86
2022-12-11T22:36:06.572Z,63.03
2022-12-11T22:38:34.585Z,62.90
2022-12-11T22:41:02.974Z,63.67
2022-12-11T22:43:29.659Z,62.93
2022-12-11T22:45:56.382Z,63.20
2022-12-11T22:48:27.212Z,63.45
2022-12-11T22:50:54.646Z,63.43
2022-12-11T22:53:21.596Z,63.08
2022-12-11T22:55:48.267Z,63.33
2022-12-11T22:58:21.430Z,63.32
2022-12-11T23:00:48.602Z,63.13
2022-12-11T23:03:15.398Z,62.76
2022-12-11T23:05:43.264Z,62.70
2022-12-11T23:08:10.102Z,63.23
2022-12-11T23:10:40.363Z,62.27
2022-12-11T23:13:07.507Z,62.69
2022-12-11T23:15:34.244Z,62.26
2022-12-11T23:18:00.896Z,62.49
2022-12-11T23:20:28.343Z,62.58
2022-12-11T23:22:54.998Z,62.45
2022-12-11T23:25:21.774Z,62.67
2022-12-11T23:27:48.636Z,63.07
2022-12-11T23:30:15.490Z,62.54
2022-12-11T23:32:42.163Z,62.45
2022-12-11T23:35:09.152Z,63.15
2022-12-11T23:37:35.831Z,62.71
2022-12-11T23:40:05.022Z,62.20
2022-12-11T23:42:34.188Z,62.24
2022-12-11T23:45:00.881Z,62.72
2022-12-11T23:47:27.581Z,62.95
2022-12-11T23:49:54.194Z,62.51
2022-12-11T23:52:22.563Z,62.85
2022-12-11T23:54:51.291Z,63.42
2022-12-11T23:57:17.964Z,63.19
2022-12-11T23:59:44.795Z,62.84
